Time;durP1;ratioP1;P1;durP2;ratioP2;P2;SDS_P1;SDS_P2;PMS_P1;PMS_P2;Temp;Humidity;BMP_temperature;BMP_pressure;BME280_temperature;BME280_humidity;BME280_pressure;Samples;Min_cycle;Max_cycle;Signal;HPM_P1;HPM_P2
2022/08/01 00:00:36;;;;;;;17.13;10.20;;;;;;;23.63;62.41;101539.19;5051451;27;114358;-75
2022/08/01 00:03:03;;;;;;;15.00;9.63;;;;;;;23.63;62.39;101544.59;5042448;27;123304;-76
2022/08/01 00:05:31;;;;;;;15.48;9.60;;;;;;;23.64;62.54;101535.47;5049344;27;122682;-76
2022/08/01 00:07:58;;;;;;;18.52;10.27;;;;;;;23.65;62.57;101537.19;5039189;27;113118;-76
2022/08/01 00:10:26;;;;;;;12.52;9.32;;;;;;;23.66;62.49;101533.50;5032441;27;113339;-75
2022/08/01 00:12:53;;;;;;;15.88;9.45;;;;;;;23.66;62.54;101538.94;5058815;27;124386;-76
2022/08/01 00:15:20;;;;;;;13.10;9.02;;;;;;;23.65;62.36;101548.03;5067104;27;124170;-74
2022/08/01 00:17:47;;;;;;;14.48;9.05;;;;;;;23.64;62.49;101546.28;5047718;27;114191;-76
2022/08/01 00:20:14;;;;;;;15.23;9.40;;;;;;;23.64;62.41;101546.28;5031907;27;112916;-76
2022/08/01 00:22:41;;;;;;;13.60;9.07;;;;;;;23.63;62.29;101540.03;5042810;27;124205;-76
2022/08/01 00:25:09;;;;;;;16.83;9.65;;;;;;;23.62;62.39;101542.88;5020448;27;123194;-76
2022/08/01 00:27:36;;;;;;;15.90;9.85;;;;;;;23.61;62.52;101549.28;5043484;27;113789;-76
2022/08/01 00:30:05;;;;;;;15.43;9.25;;;;;;;23.60;62.33;101547.56;5044672;27;113734;-76
2022/08/01 00:32:43;;;;;;;15.02;9.77;;;;;;;23.61;62.46;101552.00;5034601;27;124266;-76
2022/08/01 00:35:11;;;;;;;14.95;9.55;;;;;;;23.60;62.43;101544.84;5058582;27;123654;-76
2022/08/01 00:37:38;;;;;;;13.82;9.65;;;;;;;23.59;62.61;101548.56;5046132;27;114491;-76
2022/08/01 00:40:06;;;;;;;16.17;9.60;;;;;;;23.58;62.66;101536.03;5051520;27;114369;-76
2022/08/01 00:42:34;;;;;;;18.00;9.73;;;;;;;23.58;62.57;101541.44;5060475;27;124689;-76
2022/08/01 00:45:06;;;;;;;18.83;10.15;;;;;;;23.59;62.48;101548.56;5063632;27;124149;-76
2022/08/01 00:47:33;;;;;;;13.68;9.93;;;;;;;23.59;62.55;101559.38;5047831;27;115054;-76
2022/08/01 00:50:03;;;;;;;15.65;10.85;;;;;;;23.60;62.60;101550.25;5040948;27;114441;-76
2022/08/01 00:52:30;;;;;;;16.70;11.13;;;;;;;23.58;62.75;101546.84;5030405;27;124119;-76
2022/08/01 00:54:57;;;;;;;15.98;11.05;;;;;;;23.55;62.56;101552.56;5040211;27;124211;-75
2022/08/01 00:57:25;;;;;;;18.05;11.30;;;;;;;23.50;62.93;101556.50;5065441;27;116082;-77
2022/08/01 01:00:13;;;;;;;15.52;10.73;;;;;;;23.46;62.58;101555.06;5050587;27;113603;-77
2022/08/01 01:02:40;;;;;;;16.73;10.07;;;;;;;23.43;62.73;101555.34;5042668;27;124204;-77
2022/08/01 01:05:07;;;;;;;15.80;9.70;;;;;;;23.42;62.67;101559.03;5051643;27;122300;-77
2022/08/01 01:07:46;;;;;;;10.35;7.93;;;;;;;23.38;62.46;101557.59;5070440;27;114575;-77
2022/08/01 01:10:22;;;;;;;15.80;7.95;;;;;;;23.32;62.35;101558.16;5049399;27;114247;-77
2022/08/01 01:13:00;;;;;;;13.82;9.55;;;;;;;23.27;62.47;101555.81;5047006;27;123790;-77
2022/08/01 01:15:39;;;;;;;15.23;8.82;;;;;;;23.25;62.35;101562.38;5039060;27;123128;-76
2022/08/01 01:18:14;;;;;;;11.75;8.30;;;;;;;23.22;62.50;101568.88;5061309;27;114248;-77
2022/08/01 01:20:44;;;;;;;11.80;7.80;;;;;;;23.20;62.36;101559.22;5047788;27;115493;-77
2022/08/01 01:23:32;;;;;;;14.43;7.38;;;;;;;23.15;62.44;101561.44;5067778;27;125399;-77
2022/08/01 01:26:32;;;;;;;12.18;7.82;;;;;;;23.11;62.26;101561.72;5048916;27;123264;-77
2022/08/01 01:29:06;;;;;;;12.35;7.22;;;;;;;23.07;62.32;101560.25;5049746;27;115060;-77
2022/08/01 01:31:55;;;;;;;12.88;7.97;;;;;;;23.04;62.37;101560.53;5051340;27;113230;-77
2022/08/01 01:34:24;;;;;;;11.95;8.10;;;;;;;23.02;62.48;101573.31;5048228;27;123516;-77
2022/08/01 01:36:54;;;;;;;10.65;7.13;;;;;;;23.02;62.42;101567.03;5048102;27;123051;-77
2022/08/01 01:39:26;;;;;;;11.63;8.00;;;;;;;22.99;62.61;101562.75;5043258;27;114333;-77
2022/08/01 01:41:54;;;;;;;12.18;8.13;;;;;;;22.99;62.49;101562.75;5045839;27;114738;-77
2022/08/01 01:44:22;;;;;;;13.07;7.63;;;;;;;22.98;62.51;101555.66;5046676;27;123967;-77
2022/08/01 01:46:51;;;;;;;12.00;7.70;;;;;;;22.97;62.52;101559.31;5046045;27;123140;-77
2022/08/01 01:49:23;;;;;;;10.98;7.20;;;;;;;22.96;62.66;101563.00;5027275;27;112910;-77
2022/08/01 01:51:53;;;;;;;13.80;7.22;;;;;;;22.97;62.61;101555.78;5043131;27;114096;-77
2022/08/01 01:54:34;;;;;;;9.55;6.75;;;;;;;22.97;62.68;101553.91;5049141;27;123967;-77
2022/08/01 01:57:04;;;;;;;11.27;6.97;;;;;;;22.98;62.63;101550.25;5032782;27;123916;-77
2022/08/01 01:59:34;;;;;;;13.23;7.93;;;;;;;22.97;62.62;101553.91;5043058;27;114408;-77
2022/08/01 02:02:06;;;;;;;13.43;7.60;;;;;;;22.96;62.66;101552.19;5061606;27;113420;-77
2022/08/01 02:04:37;;;;;;;12.55;7.72;;;;;;;22.96;62.59;101554.91;5043775;27;124847;-77
2022/08/01 02:07:06;;;;;;;13.43;7.30;;;;;;;22.96;62.62;101552.19;5060858;27;123961;-77
2022/08/01 02:09:35;;;;;;;11.10;7.65;;;;;;;22.96;62.63;101560.28;5059481;27;114090;-77
2022/08/01 02:12:04;;;;;;;11.82;7.28;;;;;;;22.96;62.56;101563.00;5037000;27;113897;-77
2022/08/01 02:14:35;;;;;;;11.95;7.32;;;;;;;22.95;62.64;101558.59;5042785;27;123365;-77
2022/08/01 02:17:06;;;;;;;13.45;7.47;;;;;;;22.94;62.60;101554.16;5045350;27;123705;-77
2022/08/01 02:19:34;;;;;;;14.48;7.10;;;;;;;22.92;62.39;101558.84;5041493;27;112306;-77
2022/08/01 02:22:09;;;;;;;11.52;7.63;;;;;;;22.91;62.59;101554.47;5006843;27;113381;-77
2022/08/01 02:24:54;;;;;;;14.65;7.68;;;;;;;22.88;62.48;101555.56;5064237;27;123606;-77
2022/08/01 02:27:25;;;;;;;12.87;7.73;;;;;;;22.85;62.38;101554.97;5050028;27;124323;-77
2022/08/01 02:30:04;;;;;;;12.77;8.02;;;;;;;22.82;62.39;101555.25;5042516;27;114683;-77
2022/08/01 02:32:36;;;;;;;11.65;7.10;;;;;;;22.79;62.37;101550.94;5042370;27;115626;-77
2022/08/01 02:35:07;;;;;;;11.55;7.68;;;;;;;22.76;62.23;101566.59;5035845;27;125029;-77
2022/08/01 02:37:37;;;;;;;14.73;8.07;;;;;;;22.73;62.41;101563.16;5028960;27;123109;-77
2022/08/01 02:40:12;;;;;;;12.00;7.60;;;;;;;22.72;62.54;101561.44;5031358;27;113099;-77
2022/08/01 02:42:45;;;;;;;13.35;7.50;;;;;;;22.71;62.56;101565.09;5026341;27;113008;-77
2022/08/01 02:45:13;;;;;;;13.88;7.82;;;;;;;22.70;62.49;101563.41;5045128;27;121988;-77
2022/08/01 02:47:43;;;;;;;11.45;7.15;;;;;;;22.70;62.39;101566.09;5049202;27;123346;-78
2022/08/01 02:50:13;;;;;;;12.27;7.13;;;;;;;22.69;62.33;101561.69;5066637;27;113809;-76
2022/08/01 02:52:43;;;;;;;13.63;7.43;;;;;;;22.69;62.48;101560.84;5043274;27;112787;-76
2022/08/01 02:55:13;;;;;;;13.38;7.72;;;;;;;22.68;62.57;101560.00;5064742;27;124378;-76
2022/08/01 02:57:42;;;;;;;12.20;7.20;;;;;;;22.67;62.73;101563.66;5039535;27;124605;-76
2022/08/01 03:00:18;;;;;;;13.65;7.38;;;;;;;22.68;62.53;101549.19;5046215;27;113113;-76
2022/08/01 03:02:50;;;;;;;14.07;7.55;;;;;;;22.67;62.62;101563.66;5041225;27;112436;-76
2022/08/01 03:05:17;;;;;;;11.98;6.95;;;;;;;22.66;62.59;101563.78;5049737;27;123457;-76
2022/08/01 03:07:45;;;;;;;12.45;7.25;;;;;;;22.66;62.46;101559.25;5045278;27;123496;-76
2022/08/01 03:10:16;;;;;;;12.35;7.22;;;;;;;22.65;62.43;101549.44;5055548;27;114914;-75
2022/08/01 03:12:45;;;;;;;11.73;7.32;;;;;;;22.64;62.57;101555.84;5046997;27;114110;-75
2022/08/01 03:15:15;;;;;;;12.13;7.80;;;;;;;22.64;62.46;101558.53;5062476;27;125316;-76
2022/08/01 03:17:45;;;;;;;12.05;7.85;;;;;;;22.64;62.42;101553.13;5060984;27;124028;-77
2022/08/01 03:20:14;;;;;;;14.95;7.95;;;;;;;22.62;62.36;101554.25;5047086;27;114207;-76
2022/08/01 03:22:44;;;;;;;12.93;7.63;;;;;;;22.59;62.30;101555.38;5047361;27;114971;-77
2022/08/01 03:25:15;;;;;;;11.32;7.45;;;;;;;22.56;62.10;101555.63;5057035;27;123205;-77
2022/08/01 03:27:43;;;;;;;12.10;8.27;;;;;;;22.53;62.18;101555.91;5044116;27;123005;-77
2022/08/01 03:30:12;;;;;;;13.18;8.10;;;;;;;22.50;62.22;101556.13;5045836;27;113360;-77
2022/08/01 03:32:39;;;;;;;13.85;7.82;;;;;;;22.47;62.12;101568.06;5028028;27;112813;-76
2022/08/01 03:35:06;;;;;;;14.32;8.25;;;;;;;22.45;62.23;101567.34;5020055;27;124303;-76
2022/08/01 03:37:42;;;;;;;11.38;8.07;;;;;;;22.42;62.01;101561.34;5066488;27;123864;-76
2022/08/01 03:40:40;;;;;;;15.57;8.70;;;;;;;22.38;62.24;101573.34;5048870;27;113584;-76
2022/08/01 03:43:14;;;;;;;12.95;8.35;;;;;;;22.34;62.25;101570.94;5040493;27;113594;-76
2022/08/01 03:45:50;;;;;;;11.95;7.95;;;;;;;22.32;62.35;101570.19;5055406;27;124002;-75
2022/08/01 03:48:19;;;;;;;14.48;8.60;;;;;;;22.30;62.38;101572.19;5059047;27;124106;-76
2022/08/01 03:50:50;;;;;;;14.50;8.60;;;;;;;22.29;62.40;101581.25;5059360;27;112121;-76
2022/08/01 03:53:21;;;;;;;16.83;8.77;;;;;;;22.29;62.71;101575.84;5046946;27;113879;-76
2022/08/01 03:55:49;;;;;;;14.32;9.07;;;;;;;22.28;62.56;101584.94;5063675;27;123969;-76
2022/08/01 03:58:16;;;;;;;16.58;9.23;;;;;;;22.27;62.80;101583.22;5041212;27;125456;-76
2022/08/01 04:00:44;;;;;;;15.20;9.05;;;;;;;22.27;62.99;101585.91;5037934;27;114455;-76
2022/08/01 04:03:12;;;;;;;17.77;9.93;;;;;;;22.27;62.99;101583.22;5048410;27;113484;-76
2022/08/01 04:05:43;;;;;;;17.17;9.70;;;;;;;22.26;63.03;101576.09;5061636;27;124209;-76
2022/08/01 04:08:10;;;;;;;15.32;9.10;;;;;;;22.24;63.07;101580.72;5037680;27;123828;-76
2022/08/01 04:10:37;;;;;;;18.10;9.93;;;;;;;22.23;63.13;101587.13;5031612;27;115403;-76
2022/08/01 04:13:04;;;;;;;15.45;9.65;;;;;;;22.21;63.18;101582.81;5054907;27;114489;-76
2022/08/01 04:15:31;;;;;;;18.35;9.63;;;;;;;22.21;63.18;101581.00;5036249;27;123529;-76
2022/08/01 04:17:58;;;;;;;13.23;8.82;;;;;;;22.22;63.22;101585.41;5052156;27;125060;-76
2022/08/01 04:20:26;;;;;;;17.60;9.57;;;;;;;22.21;63.03;101581.00;5037960;27;113397;-76
2022/08/01 04:22:53;;;;;;;16.10;8.75;;;;;;;22.20;63.34;101587.38;5031032;27;113600;-77
2022/08/01 04:25:26;;;;;;;14.77;8.95;;;;;;;22.20;63.42;101587.38;5043517;27;123863;-76
2022/08/01 04:27:54;;;;;;;16.83;10.05;;;;;;;22.22;63.29;101582.69;5029969;27;124294;-76
2022/08/01 04:30:29;;;;;;;15.43;8.98;;;;;;;22.23;63.37;101587.13;5030807;27;114242;-76
2022/08/01 04:33:00;;;;;;;16.65;9.18;;;;;;;22.24;63.26;101594.22;5027115;27;113222;-76
2022/08/01 04:35:28;;;;;;;18.48;9.77;;;;;;;22.26;63.51;101586.03;5043338;27;123722;-76
2022/08/01 04:38:19;;;;;;;18.73;9.68;;;;;;;22.26;63.37;101592.28;5057181;27;123712;-77
2022/08/01 04:40:46;;;;;;;16.92;9.25;;;;;;;22.29;63.47;101591.19;5050100;27;114092;-77
2022/08/01 04:43:14;;;;;;;15.82;9.10;;;;;;;22.31;63.72;101595.47;5056434;27;113812;-77
2022/08/01 04:45:43;;;;;;;17.20;9.60;;;;;;;22.33;63.75;101598.88;5060468;27;123959;-77
2022/08/01 04:48:11;;;;;;;15.75;9.82;;;;;;;22.35;63.47;101596.91;5050792;27;124134;-77
2022/08/01 04:50:41;;;;;;;17.75;8.98;;;;;;;22.37;63.34;101601.34;5067398;27;114293;-77
2022/08/01 04:53:16;;;;;;;17.83;9.73;;;;;;;22.35;63.40;101607.72;5070768;27;113897;-77
2022/08/01 04:55:43;;;;;;;;;;;;;;;22.35;63.27;101607.72;5051330;27;123498;-77
2022/08/01 04:58:11;;;;;;;16.30;8.90;;;;;;;22.39;63.28;101596.69;5066912;27;123201;-77
2022/08/01 05:00:44;;;;;;;15.88;9.00;;;;;;;22.40;63.03;101598.41;5037067;27;115021;-77
2022/08/01 05:03:11;;;;;;;16.13;8.88;;;;;;;22.40;63.38;101598.41;5039904;27;114670;-77
2022/08/01 05:05:38;;;;;;;17.20;9.30;;;;;;;22.41;63.45;101600.94;5026538;27;122142;-77
2022/08/01 05:08:05;;;;;;;18.98;9.88;;;;;;;22.45;63.37;101606.94;5064638;27;126432;-77
2022/08/01 05:10:33;;;;;;;13.63;7.88;;;;;;;22.45;63.27;101604.25;5050040;27;114233;-77
2022/08/01 05:13:00;;;;;;;19.20;9.32;;;;;;;22.48;63.37;101606.72;5047243;27;114409;-77
2022/08/01 05:15:27;;;;;;;20.73;9.02;;;;;;;22.50;63.38;101615.53;5042143;27;123920;-77
2022/08/01 05:17:56;;;;;;;19.40;9.02;;;;;;;22.53;63.30;101621.53;5060525;27;123639;-77
2022/08/01 05:20:23;;;;;;;15.00;8.73;;;;;;;22.56;63.46;101620.41;5072830;27;114068;-77
2022/08/01 05:22:50;;;;;;;15.10;9.25;;;;;;;22.59;63.43;101624.72;5051829;27;113163;-77
2022/08/01 05:25:17;;;;;;;17.02;9.02;;;;;;;22.60;63.49;101627.25;5081527;27;123156;-77
2022/08/01 05:28:04;;;;;;;16.10;8.43;;;;;;;22.64;63.36;101631.44;5072347;27;123356;-76
2022/08/01 05:30:32;;;;;;;17.17;9.15;;;;;;;22.65;63.32;101630.44;5080884;27;114401;-77
2022/08/01 05:32:59;;;;;;;18.15;9.50;;;;;;;22.67;63.56;101624.91;5057105;27;113418;-77
2022/08/01 05:35:26;;;;;;;19.85;9.93;;;;;;;22.67;63.59;101628.47;5038942;27;122199;-77
2022/08/01 05:38:13;;;;;;;17.70;9.02;;;;;;;22.70;63.47;101622.81;5033993;27;123214;-77
2022/08/01 05:40:41;;;;;;;15.30;9.15;;;;;;;22.73;63.48;101622.56;5063103;27;114256;-77
2022/08/01 05:43:08;;;;;;;16.52;9.60;;;;;;;22.78;63.44;101629.44;5043615;27;111960;-77
2022/08/01 05:45:35;;;;;;;15.15;9.43;;;;;;;22.82;63.42;101630.88;5045424;27;123022;-77
2022/08/01 05:48:02;;;;;;;15.20;9.10;;;;;;;22.84;63.36;101623.50;5047994;27;123450;-77
2022/08/01 05:50:29;;;;;;;15.48;9.15;;;;;;;22.88;63.35;101624.94;5042999;27;114585;-77
2022/08/01 05:52:56;;;;;;;14.57;8.70;;;;;;;22.93;63.43;101633.53;5051984;27;114646;-77
2022/08/01 05:55:23;;;;;;;15.07;9.45;;;;;;;22.95;63.30;101631.53;5022898;27;123297;-77
2022/08/01 05:57:50;;;;;;;14.90;10.13;;;;;;;23.01;63.33;101635.56;5069906;27;124335;-77
2022/08/01 06:00:17;;;;;;;14.90;9.07;;;;;;;23.05;63.26;101632.50;5046584;27;114403;-77
2022/08/01 06:02:44;;;;;;;16.23;10.10;;;;;;;23.10;63.22;101632.97;5048552;27;113746;-77
2022/08/01 06:05:12;;;;;;;15.40;10.15;;;;;;;23.17;63.07;101635.13;5043991;27;122040;-76
2022/08/01 06:07:40;;;;;;;14.25;10.27;;;;;;;23.23;63.04;101635.47;5040833;27;122385;-77
2022/08/01 06:10:08;;;;;;;13.98;9.63;;;;;;;23.29;62.78;101634.09;5050709;27;114144;-76
2022/08/01 06:12:35;;;;;;;18.25;10.43;;;;;;;23.33;62.55;101627.41;5021167;27;113972;-76
2022/08/01 06:15:04;;;;;;;15.35;10.32;;;;;;;23.34;62.44;101637.25;5038460;27;122460;-76
2022/08/01 06:17:32;;;;;;;15.25;9.77;;;;;;;23.36;62.16;101640.69;5039774;27;122840;-76
2022/08/01 06:19:59;;;;;;;16.50;10.40;;;;;;;23.39;62.31;101640.41;5054282;27;113457;-76
2022/08/01 06:22:26;;;;;;;17.42;10.85;;;;;;;23.42;62.27;101634.72;5049047;27;114731;-76
2022/08/01 06:24:53;;;;;;;17.25;10.57;;;;;;;23.46;62.06;101636.16;5030970;27;123526;-76
2022/08/01 06:27:20;;;;;;;16.85;10.30;;;;;;;23.50;62.28;101632.19;5029357;27;123895;-76
2022/08/01 06:29:49;;;;;;;17.98;11.18;;;;;;;23.52;62.08;101635.63;5049513;27;114351;-76
2022/08/01 06:32:22;;;;;;;15.32;11.25;;;;;;;23.57;61.99;101637.94;5032503;27;113692;-76
2022/08/01 06:34:54;;;;;;;14.82;10.75;;;;;;;23.60;61.90;101642.22;5032177;27;124173;-76
2022/08/01 06:37:22;;;;;;;15.52;10.50;;;;;;;23.64;62.02;101643.66;5043148;27;123920;-76
2022/08/01 06:39:49;;;;;;;15.57;10.70;;;;;;;23.68;61.84;101645.13;5037982;27;115531;-76
2022/08/01 06:42:17;;;;;;;15.30;10.73;;;;;;;23.72;61.75;101649.25;5030919;27;114373;-76
2022/08/01 06:44:44;;;;;;;16.17;10.57;;;;;;;23.75;61.73;101651.69;5029694;27;123509;-76
2022/08/01 06:47:12;;;;;;;15.50;10.57;;;;;;;23.77;61.65;101657.84;5035559;27;123493;-76
2022/08/01 06:49:39;;;;;;;13.70;9.90;;;;;;;23.82;61.27;101658.31;5045185;27;115055;-76
2022/08/01 06:52:06;;;;;;;13.60;9.48;;;;;;;23.83;61.18;101654.63;5033790;27;114687;-76
2022/08/01 06:54:34;;;;;;;13.02;9.75;;;;;;;23.82;60.86;101663.72;5035444;27;123484;-77
2022/08/01 06:57:05;;;;;;;12.45;8.95;;;;;;;23.81;60.75;101656.59;5033093;27;122886;-76
2022/08/01 06:59:32;;;;;;;12.80;8.38;;;;;;;23.81;60.78;101656.59;5052722;27;114471;-76
2022/08/01 07:02:01;;;;;;;11.40;8.07;;;;;;;23.82;60.66;101663.72;5030806;27;114005;-76
2022/08/01 07:04:28;;;;;;;10.68;8.57;;;;;;;23.83;60.59;101660.03;5046679;27;123800;-76
2022/08/01 07:06:56;;;;;;;12.77;8.40;;;;;;;23.84;60.44;101659.00;5064790;27;124682;-76
2022/08/01 07:09:23;;;;;;;13.02;9.27;;;;;;;23.85;60.33;101663.44;5048260;27;114251;-76
2022/08/01 07:11:52;;;;;;;10.07;7.57;;;;;;;23.86;60.48;101665.16;5046730;27;113169;-76
2022/08/01 07:14:20;;;;;;;10.07;7.20;;;;;;;23.87;60.31;101672.28;5040707;27;124143;-76
2022/08/01 07:16:48;;;;;;;11.00;7.70;;;;;;;23.90;60.31;101665.72;5062892;27;124214;-76
2022/08/01 07:19:15;;;;;;;10.70;6.78;;;;;;;23.92;60.23;101668.31;5064160;27;113332;-77
2022/08/01 07:21:42;;;;;;;9.07;6.35;;;;;;;23.95;60.26;101673.47;5037335;27;113986;-77
2022/08/01 07:24:13;;;;;;;8.30;6.03;;;;;;;23.96;60.17;101662.50;5052296;27;124324;-76
2022/08/01 07:26:44;;;;;;;9.93;6.72;;;;;;;23.97;60.06;101660.66;5033458;27;125878;-73
2022/08/01 07:29:22;;;;;;;7.07;5.53;;;;;;;24.00;60.02;101665.78;5046175;27;114684;-74
2022/08/01 07:31:53;;;;;;;5.40;4.40;;;;;;;24.04;60.10;101667.22;5045055;27;113919;-74
2022/08/01 07:34:21;;;;;;;4.80;3.85;;;;;;;24.04;59.70;101667.22;5021432;27;123970;-74
2022/08/01 07:36:49;;;;;;;5.60;3.88;;;;;;;24.06;59.62;101665.25;5035688;27;122967;-74
2022/08/01 07:39:16;;;;;;;3.88;3.10;;;;;;;24.09;59.53;101676.66;5055578;27;114725;-74
2022/08/01 07:41:43;;;;;;;4.82;2.75;;;;;;;24.08;59.39;101674.94;5026019;27;113072;-74
2022/08/01 07:44:30;;;;;;;4.10;3.10;;;;;;;24.09;59.25;101676.66;5052610;27;124030;-75
2022/08/01 07:46:57;;;;;;;4.88;3.50;;;;;;;24.12;59.10;101675.50;5028728;27;123675;-74
2022/08/01 07:49:24;;;;;;;3.30;2.67;;;;;;;24.13;58.69;101682.66;5059722;27;114342;-75
2022/08/01 07:51:52;;;;;;;4.47;3.08;;;;;;;24.13;58.59;101682.66;5048111;27;113784;-75
2022/08/01 07:54:34;;;;;;;5.47;3.63;;;;;;;24.16;58.97;101682.34;5033094;27;124213;-75
2022/08/01 07:57:02;;;;;;;4.50;3.85;;;;;;;24.21;58.87;101690.94;5050758;27;123885;-75
2022/08/01 07:59:30;;;;;;;4.88;3.60;;;;;;;24.29;59.07;101693.78;5058703;27;114456;-75
2022/08/01 08:01:57;;;;;;;5.00;4.07;;;;;;;24.37;59.01;101695.81;5057623;27;113312;-75
2022/08/01 08:04:25;;;;;;;5.22;4.22;;;;;;;24.44;58.70;101685.28;5017688;27;123937;-74
2022/08/01 08:06:53;;;;;;;5.57;4.50;;;;;;;24.50;58.27;101690.13;5033494;27;124599;-75
2022/08/01 08:09:21;;;;;;;6.30;4.82;;;;;;;24.55;58.21;101687.91;5052046;27;114260;-75
2022/08/01 08:11:48;;;;;;;6.65;4.55;;;;;;;24.60;58.34;101693.78;5054856;27;113119;-75
2022/08/01 08:14:16;;;;;;;6.00;4.65;;;;;;;24.66;58.16;101693.19;5050199;27;124600;-76
2022/08/01 08:16:44;;;;;;;5.03;3.58;;;;;;;24.73;58.01;101692.63;5035285;27;124493;-75
2022/08/01 08:19:11;;;;;;;5.28;4.00;;;;;;;24.79;57.99;101698.34;5032922;27;115306;-77
2022/08/01 08:21:39;;;;;;;6.28;4.15;;;;;;;24.86;58.17;101693.22;5032931;27;114595;-75
2022/08/01 08:24:19;;;;;;;4.93;3.75;;;;;;;24.94;58.11;101698.78;5054048;27;124217;-75
2022/08/01 08:26:58;;;;;;;3.50;2.63;;;;;;;24.98;57.59;101705.63;5063797;27;123863;-75
2022/08/01 08:29:26;;;;;;;3.15;2.65;;;;;;;25.05;57.39;101706.78;5031795;27;113439;-75
2022/08/01 08:31:54;;;;;;;4.22;3.45;;;;;;;25.14;57.58;101698.78;5050881;27;114325;-74
2022/08/01 08:34:23;;;;;;;4.70;3.05;;;;;;;25.21;57.52;101697.22;5032005;27;123731;-74
2022/08/01 08:36:51;;;;;;;5.43;2.90;;;;;;;25.28;57.57;101695.66;5059570;27;123974;-73
2022/08/01 08:39:18;;;;;;;3.72;2.83;;;;;;;25.40;57.17;101699.91;5049368;27;113112;-75
2022/08/01 08:41:47;;;;;;;3.30;2.70;;;;;;;25.52;56.67;101691.63;5034792;27;115180;-75
2022/08/01 08:44:16;;;;;;;3.05;2.35;;;;;;;25.63;56.59;101694.16;5040234;27;124027;-75
2022/08/01 08:46:46;;;;;;;2.20;1.80;;;;;;;25.76;56.82;101699.25;5050767;27;123790;-75
2022/08/01 08:49:23;;;;;;;2.30;1.80;;;;;;;25.86;56.43;101696.50;5030676;27;113591;-75
2022/08/01 08:51:52;;;;;;;2.28;1.65;;;;;;;25.90;56.07;101696.09;5054486;27;113993;-75
2022/08/01 08:54:23;;;;;;;2.50;1.30;;;;;;;25.98;55.68;101703.50;5049839;27;123789;-75
2022/08/01 08:56:59;;;;;;;1.95;1.40;;;;;;;26.04;55.42;101702.91;5057798;27;124279;-75
2022/08/01 08:59:28;;;;;;;2.05;1.30;;;;;;;26.08;55.28;101709.75;5045784;27;114372;-75
2022/08/01 09:01:56;;;;;;;2.67;1.60;;;;;;;26.12;55.01;101700.28;5038573;27;113936;-75
2022/08/01 09:04:25;;;;;;;2.35;1.58;;;;;;;26.18;55.19;101705.13;5048949;27;123187;-75
2022/08/01 09:06:54;;;;;;;2.47;1.70;;;;;;;26.19;54.59;101704.13;5066955;27;123646;-76
2022/08/01 09:09:22;;;;;;;2.03;1.50;;;;;;;26.27;54.82;101710.66;5057399;27;114254;-75
2022/08/01 09:11:49;;;;;;;2.92;1.58;;;;;;;26.36;54.28;101709.75;5057408;27;114952;-73
2022/08/01 09:14:27;;;;;;;1.95;1.20;;;;;;;26.44;54.02;101701.69;5054204;27;124512;-74
2022/08/01 09:17:06;;;;;;;1.88;1.00;;;;;;;26.48;54.00;101707.69;5040490;27;124252;-75
2022/08/01 09:19:41;;;;;;;2.03;1.20;;;;;;;26.50;53.51;101724.69;5032431;27;113131;-75
2022/08/01 09:22:11;;;;;;;1.90;1.10;;;;;;;26.48;53.08;101719.41;5058321;27;113778;-74
2022/08/01 09:24:40;;;;;;;2.90;1.00;;;;;;;26.50;52.43;101714.66;5035997;27;124412;-74
2022/08/01 09:27:23;;;;;;;2.55;0.88;;;;;;;26.49;52.69;101722.97;5015925;27;122731;-74
2022/08/01 09:29:54;;;;;;;1.45;0.90;;;;;;;26.46;52.21;101724.13;5032505;27;114678;-74
2022/08/01 09:32:30;;;;;;;1.13;1.00;;;;;;;26.50;52.52;101725.53;5059249;27;113626;-74
2022/08/01 09:35:38;;;;;;;1.45;0.88;;;;;;;26.59;52.93;101719.22;5051492;27;124074;-74
2022/08/01 09:38:14;;;;;;;1.58;1.10;;;;;;;26.71;53.03;101724.44;4950086;28;124333;-74
2022/08/01 09:40:48;;;;;;;1.33;1.10;;;;;;;26.83;52.48;101715.06;5016308;27;113801;-78
2022/08/01 09:43:17;;;;;;;1.67;1.20;;;;;;;26.90;52.34;101721.59;5055512;27;113838;-75
2022/08/01 09:45:45;;;;;;;1.20;1.00;;;;;;;26.98;52.00;101724.38;5057605;27;123461;-75
2022/08/01 09:48:18;;;;;;;1.27;0.80;;;;;;;27.04;51.59;101732.94;5037927;27;123688;-75
2022/08/01 09:50:50;;;;;;;1.30;0.80;;;;;;;27.06;51.35;101728.19;5010100;27;113741;-75
2022/08/01 09:53:19;;;;;;;1.30;0.80;;;;;;;27.12;50.87;101724.84;5050975;27;115229;-73
2022/08/01 09:56:09;;;;;;;1.73;0.90;;;;;;;27.23;51.28;101721.88;5032801;27;123969;-75
2022/08/01 09:58:54;;;;;;;1.20;0.82;;;;;;;27.38;50.98;101719.47;5057668;27;123889;-75
2022/08/01 10:01:48;;;;;;;1.23;0.82;;;;;;;27.56;50.70;101733.06;5048069;27;115455;-75
2022/08/01 10:04:21;;;;;;;2.17;0.70;;;;;;;27.68;50.00;101720.88;5045425;27;114460;-75
2022/08/01 10:06:53;;;;;;;1.13;0.80;;;;;;;27.81;50.37;101725.06;5031440;27;124041;-75
2022/08/01 10:09:33;;;;;;;1.15;0.70;;;;;;;27.92;49.89;101725.66;5046620;27;124041;-75
2022/08/01 10:12:07;;;;;;;1.17;0.82;;;;;;;28.02;49.46;101728.25;5031348;27;112316;-77
2022/08/01 10:14:43;;;;;;;2.17;0.95;;;;;;;28.07;49.68;101720.47;4999566;28;112924;-76
2022/08/01 10:17:15;;;;;;;1.83;0.90;;;;;;;28.09;49.12;101723.88;5025008;27;123913;-75
2022/08/01 10:19:46;;;;;;;1.55;0.90;;;;;;;28.10;48.79;101725.56;5021623;27;123781;-75
2022/08/01 10:22:17;;;;;;;1.85;0.95;;;;;;;28.10;48.49;101733.72;5062253;27;114535;-75
2022/08/01 10:24:47;;;;;;;1.90;0.85;;;;;;;28.09;48.06;101734.75;5034503;27;113063;-76
2022/08/01 10:27:16;;;;;;;1.92;0.85;;;;;;;28.07;48.38;101736.81;5058138;27;125299;-75
2022/08/01 10:30:04;;;;;;;1.48;0.80;;;;;;;28.08;48.36;101738.50;5034102;27;123800;-76
2022/08/01 10:32:52;;;;;;;2.00;1.02;;;;;;;28.15;48.65;101745.00;5049834;27;114483;-75
2022/08/01 10:35:21;;;;;;;2.92;1.10;;;;;;;28.22;48.76;101738.88;5033433;27;114440;-75
2022/08/01 10:38:09;;;;;;;1.67;1.10;;;;;;;28.22;48.33;101747.06;5046779;27;123928;-75
2022/08/01 10:40:42;;;;;;;1.70;0.93;;;;;;;28.15;47.74;101739.56;5030861;27;123443;-74
2022/08/01 10:43:10;;;;;;;2.80;1.02;;;;;;;28.06;47.54;101745.97;5029798;27;113877;-75
2022/08/01 10:45:39;;;;;;;1.90;1.05;;;;;;;27.93;47.92;101745.56;5057029;27;114208;-75
2022/08/01 10:48:36;;;;;;;2.95;1.20;;;;;;;27.80;47.96;101753.28;5022940;27;123752;-74
2022/08/01 10:51:05;;;;;;;1.50;1.10;;;;;;;27.65;48.38;101748.44;5041148;27;123301;-74
2022/08/01 10:53:52;;;;;;;2.88;1.15;;;;;;;27.43;48.14;101754.38;5058945;27;115009;-75
2022/08/01 10:56:22;;;;;;;2.45;1.48;;;;;;;27.24;48.36;101749.91;5043184;27;114863;-76
2022/08/01 10:59:20;;;;;;;1.60;1.08;;;;;;;26.99;48.82;101753.28;5032932;27;124220;-75
2022/08/01 11:02:07;;;;;;;2.55;1.10;;;;;;;26.82;48.81;101756.81;5061936;27;122903;-76
2022/08/01 11:04:54;;;;;;;1.00;0.60;;;;;;;26.58;48.92;101760.97;5068762;27;114288;-76
2022/08/01 11:07:34;;;;;;;1.75;0.80;;;;;;;26.40;49.25;101746.47;5061414;27;113809;-76
2022/08/01 11:10:15;;;;;;;5.93;0.77;;;;;;;26.27;49.35;101756.84;5030722;27;123533;-76
2022/08/01 11:12:42;;;;;;;1.65;1.10;;;;;;;26.23;49.93;101767.97;5050743;27;123904;-76
2022/08/01 11:15:10;;;;;;;2.50;0.80;;;;;;;26.23;50.03;101761.69;5035254;27;113731;-75
2022/08/01 11:17:39;;;;;;;1.33;0.90;;;;;;;26.26;50.00;101771.41;5041440;27;113922;-75
2022/08/01 11:20:08;;;;;;;2.90;0.98;;;;;;;26.29;49.76;101771.13;5061502;27;123885;-75
2022/08/01 11:23:00;;;;;;;2.05;0.90;;;;;;;26.37;50.08;101757.63;5058522;27;124471;-75
2022/08/01 11:25:37;;;;;;;2.10;0.88;;;;;;;26.47;49.86;101766.59;5027032;27;114916;-76
2022/08/01 11:28:26;;;;;;;2.22;0.90;;;;;;;26.55;49.28;101772.13;5014787;27;113974;-75
2022/08/01 11:31:07;;;;;;;1.38;0.95;;;;;;;26.56;49.28;101779.28;5047572;27;124421;-75